Time;durP1;ratioP1;P1;durP2;ratioP2;P2;SDS_P1;SDS_P2;PMS_P1;PMS_P2;Temp;Humidity;BMP_temperature;BMP_pressure;BME280_temperature;BME280_humidity;BME280_pressure;Samples;Min_cycle;Max_cycle;Signal;HPM_P1;HPM_P2
2022/01/26 00:07:51;;;;;;;56.20;24.83;;;;;;;5.69;66.88;101407.00;5092157;28;20117;-59
2022/01/26 00:10:18;;;;;;;51.28;23.33;;;;;;;5.67;66.81;101408.75;5091464;28;20488;-59
2022/01/26 00:12:44;;;;;;;54.90;24.33;;;;;;;5.64;66.96;101404.41;5091785;28;20113;-62
2022/01/26 00:15:11;;;;;;;48.88;21.88;;;;;;;5.62;66.96;101395.75;5091474;28;20160;-59
2022/01/26 00:17:38;;;;;;;56.78;23.98;;;;;;;5.61;67.13;101394.88;5091515;28;20095;-59
2022/01/26 00:41:34;;;;;;;51.83;23.42;;;;;;;5.42;66.87;101386.34;5067442;28;20074;-60
2022/01/26 00:44:01;;;;;;;53.80;24.25;;;;;;;5.40;67.17;101376.78;5091584;28;20048;-60
2022/01/26 00:46:27;;;;;;;53.08;24.35;;;;;;;5.38;67.03;101383.78;5091074;28;20452;-60
2022/01/26 00:48:54;;;;;;;58.67;25.85;;;;;;;5.33;67.21;101387.31;5091031;28;20076;-60
2022/01/26 00:51:22;;;;;;;44.85;20.85;;;;;;;5.30;66.98;101384.72;5090787;28;20480;-59
2022/01/26 00:54:09;;;;;;;53.20;20.70;;;;;;;5.25;67.28;101381.28;5090196;28;20067;-60
2022/01/26 00:56:36;;;;;;;56.92;21.50;;;;;;;5.22;67.08;101384.78;5090948;28;20414;-60
2022/01/26 00:59:02;;;;;;;50.65;21.33;;;;;;;5.20;67.36;101381.31;5091066;28;20048;-61
2022/01/26 01:01:31;;;;;;;55.03;21.85;;;;;;;5.20;67.82;101396.97;5090723;28;20396;-59
2022/01/26 01:03:59;;;;;;;46.22;20.88;;;;;;;5.22;67.95;101386.50;5089770;28;20063;-61
2022/01/26 01:06:29;;;;;;;55.80;21.85;;;;;;;5.24;68.12;101386.50;5090915;28;20059;-59
2022/01/26 01:08:57;;;;;;;56.55;23.65;;;;;;;5.28;68.10;101385.59;5091957;28;20054;-60
2022/01/26 01:11:26;;;;;;;54.25;22.73;;;;;;;5.31;68.11;101382.97;5093708;28;20393;-60
2022/01/26 01:13:54;;;;;;;55.67;23.83;;;;;;;5.35;67.94;101384.69;5094943;28;20048;-60
2022/01/26 01:16:22;;;;;;;57.55;24.77;;;;;;;5.38;67.72;101383.78;5093820;28;20085;-61
2022/01/26 01:19:16;;;;;;;56.72;26.05;;;;;;;5.37;67.79;101379.41;5093768;28;20056;-60
2022/01/26 01:25:18;;;;;;;59.38;24.38;;;;;;;5.35;67.33;101376.84;5078475;28;20048;-61
2022/01/26 01:30:27;;;;;;;59.88;26.00;;;;;;;5.28;67.53;101368.22;5094424;28;20408;-60
2022/01/26 01:33:05;;;;;;;61.17;25.48;;;;;;;5.24;67.35;101361.28;5094564;28;20648;-62
2022/01/26 01:35:35;;;;;;;62.90;26.83;;;;;;;5.20;67.28;101364.78;5094731;28;20466;-61
2022/01/26 01:38:09;;;;;;;62.38;25.98;;;;;;;5.16;67.81;101370.91;5094701;28;20060;-60
2022/01/26 01:40:37;;;;;;;57.25;23.55;;;;;;;5.13;68.02;101369.19;5093022;28;20067;-63
2022/01/26 01:43:05;;;;;;;62.92;25.30;;;;;;;5.11;68.04;101368.34;5094367;28;20048;-59
2022/01/26 01:45:52;;;;;;;57.05;24.42;;;;;;;5.08;67.64;101371.84;5093002;28;20561;-60
2022/01/26 01:48:28;;;;;;;54.75;24.05;;;;;;;5.12;67.77;101369.22;5094533;28;20048;-60
2022/01/26 01:50:57;;;;;;;53.83;23.50;;;;;;;5.15;68.16;101358.72;5092872;28;20055;-60
2022/01/26 01:53:33;;;;;;;55.22;24.77;;;;;;;5.17;68.25;101367.41;5094399;28;20052;-60
2022/01/26 01:56:00;;;;;;;54.30;24.23;;;;;;;5.18;68.32;101366.53;5093169;28;20396;-59
2022/01/26 01:58:28;;;;;;;58.00;25.88;;;;;;;5.19;68.05;101374.34;5093142;28;20474;-59
2022/01/26 02:00:55;;;;;;;55.55;25.05;;;;;;;5.20;68.13;101372.63;5092754;28;20052;-60
2022/01/26 02:03:24;;;;;;;64.13;25.95;;;;;;;5.20;68.24;101368.25;5094095;28;20085;-61
2022/01/26 02:05:51;;;;;;;64.18;26.58;;;;;;;5.22;68.14;101365.63;5092811;28;20048;-60
2022/01/26 02:08:18;;;;;;;61.60;26.35;;;;;;;5.22;68.13;101357.81;5093877;28;20048;-59
2022/01/26 02:10:45;;;;;;;61.13;27.02;;;;;;;5.22;68.15;101349.97;5092699;28;20056;-60
2022/01/26 02:14:00;;;;;;;70.03;30.08;;;;;;;5.21;67.81;101356.06;5093848;28;20101;-59
2022/01/26 02:19:26;;;;;;;72.00;27.98;;;;;;;5.17;67.72;101354.38;5094021;28;20052;-61
2022/01/26 02:52:39;;;;;;;62.67;25.45;;;;;;;4.66;68.50;101280.84;5093109;28;20047;-60
2022/01/26 02:55:19;;;;;;;60.47;25.27;;;;;;;4.65;68.68;101267.81;5093267;28;20048;-60
2022/01/26 03:03:17;;;;;;;65.32;27.13;;;;;;;4.57;68.49;101289.59;5092949;28;20087;-60
2022/01/26 03:05:56;;;;;;;66.85;25.30;;;;;;;4.55;68.74;101288.75;5091699;28;20054;-59
2022/01/26 03:08:30;;;;;;;68.28;25.83;;;;;;;4.55;68.83;101301.78;5091497;28;20466;-60
2022/01/26 03:11:02;;;;;;;66.00;27.42;;;;;;;4.57;69.02;101302.63;5092972;28;20059;-60
2022/01/26 03:13:32;;;;;;;66.90;27.77;;;;;;;4.59;69.01;101299.16;5091605;28;20117;-60
2022/01/26 03:16:06;;;;;;;62.47;27.02;;;;;;;4.61;69.00;101289.56;5092392;28;20471;-60
2022/01/26 03:21:25;;;;;;;71.05;27.30;;;;;;;4.64;68.60;101284.34;5092392;28;20060;-60
2022/01/26 03:34:27;;;;;;;74.07;29.30;;;;;;;4.69;68.85;101304.31;5092616;28;20052;-59
2022/01/26 03:36:58;;;;;;;67.07;28.05;;;;;;;4.72;69.03;101311.22;5092180;28;20105;-62
2022/01/26 03:39:26;;;;;;;71.20;28.38;;;;;;;4.74;68.98;101299.03;5092049;28;20048;-60
2022/01/26 03:42:05;;;;;;;75.53;31.23;;;;;;;4.77;69.04;101296.41;5090925;28;20047;-60
2022/01/26 03:44:32;;;;;;;82.00;33.22;;;;;;;4.80;68.77;101285.97;5092096;28;20039;-60
2022/01/26 03:46:59;;;;;;;78.32;32.30;;;;;;;4.80;68.74;101267.69;5092118;28;20059;-60
2022/01/26 03:49:25;;;;;;;83.68;33.97;;;;;;;4.81;68.91;101277.25;5091994;28;20463;-59
2022/01/26 03:51:52;;;;;;;84.93;34.95;;;;;;;4.80;68.39;101269.44;5091796;28;20570;-60
2022/01/26 03:54:20;;;;;;;77.82;32.80;;;;;;;4.78;68.44;101263.34;5090575;28;20489;-61
2022/01/26 03:56:46;;;;;;;71.80;30.10;;;;;;;4.75;68.47;101263.38;5090894;28;20436;-62
2022/01/26 03:59:13;;;;;;;75.25;30.23;;;;;;;4.73;68.25;101254.69;5091879;28;20044;-60
2022/01/26 04:01:40;;;;;;;73.85;30.90;;;;;;;4.70;68.37;101242.53;5091843;28;20052;-59
2022/01/26 04:04:07;;;;;;;74.25;31.92;;;;;;;4.67;68.39;101258.22;5090787;28;20048;-59
2022/01/26 04:06:35;;;;;;;79.05;31.00;;;;;;;4.65;68.79;101281.72;5091958;28;20048;-60
2022/01/26 04:09:05;;;;;;;84.60;34.05;;;;;;;4.64;68.61;101279.13;5091826;28;20101;-60
2022/01/26 04:11:42;;;;;;;76.50;31.00;;;;;;;4.65;68.64;101286.06;5091947;28;20442;-59
2022/01/26 04:14:12;;;;;;;70.20;29.83;;;;;;;4.65;68.32;101278.25;5091832;28;20056;-62
2022/01/26 04:16:40;;;;;;;73.03;31.08;;;;;;;4.63;68.77;101278.25;5090368;28;20052;-62
2022/01/26 04:19:08;;;;;;;73.38;31.33;;;;;;;4.62;68.84;101273.03;5091613;28;20098;-60
2022/01/26 04:24:15;;;;;;;76.57;31.35;;;;;;;4.61;68.59;101285.22;5091934;28;20044;-60
2022/01/26 04:29:24;;;;;;;;;;;;;;;4.63;68.15;101291.28;5091958;28;20055;-60
2022/01/26 04:31:51;;;;;;;65.78;25.27;;;;;;;4.67;68.93;101292.13;5090268;28;19923;-61
2022/01/26 04:34:18;;;;;;;70.88;28.65;;;;;;;4.67;68.86;101295.59;5091682;28;20052;-61
2022/01/26 04:36:58;;;;;;;70.32;29.42;;;;;;;4.67;68.84;101290.38;5091436;28;20048;-61
2022/01/26 04:39:33;;;;;;;70.07;30.65;;;;;;;4.67;68.76;101298.22;5089980;28;20226;-60
2022/01/26 04:42:08;;;;;;;74.03;30.95;;;;;;;4.64;68.52;101289.56;5091178;28;20480;-62
2022/01/26 04:44:44;;;;;;;79.78;32.45;;;;;;;4.61;68.16;101300.00;5090996;28;20048;-60
2022/01/26 04:47:11;;;;;;;79.40;32.75;;;;;;;4.55;67.88;101312.22;5091097;28;20126;-60
2022/01/26 04:49:38;;;;;;;79.82;32.53;;;;;;;4.49;68.00;101321.81;5091075;28;20064;-60
2022/01/26 04:52:04;;;;;;;74.75;31.98;;;;;;;4.40;68.23;101307.97;5091020;28;20059;-60
2022/01/26 04:54:31;;;;;;;79.85;35.08;;;;;;;4.33;68.26;101301.03;5091073;28;20097;-60
2022/01/26 04:56:58;;;;;;;77.93;31.40;;;;;;;4.26;68.34;101302.81;5090751;28;20056;-60
2022/01/26 04:59:25;;;;;;;76.68;30.98;;;;;;;4.21;68.67;101308.94;5090879;28;20105;-59
2022/01/26 05:01:51;;;;;;;78.55;29.88;;;;;;;4.18;68.92;101315.03;5091353;28;20055;-59
2022/01/26 05:04:18;;;;;;;78.85;32.15;;;;;;;4.18;69.13;101304.59;5090745;28;20074;-61
2022/01/26 05:06:44;;;;;;;76.22;30.70;;;;;;;4.19;69.38;101305.47;5090628;28;20117;-61
2022/01/26 05:09:11;;;;;;;77.47;31.17;;;;;;;4.20;69.25;101291.56;5090659;28;20052;-60
2022/01/26 05:11:41;;;;;;;79.10;31.90;;;;;;;4.22;69.36;101282.88;5090834;28;20454;-61
2022/01/26 05:14:08;;;;;;;72.90;29.52;;;;;;;4.25;69.63;101281.97;5091055;28;20048;-61
2022/01/26 05:16:36;;;;;;;75.68;31.90;;;;;;;4.28;69.29;101289.78;5090726;28;20496;-60
2022/01/26 05:19:05;;;;;;;76.55;31.27;;;;;;;4.29;69.45;101287.16;5090784;28;20074;-62
2022/01/26 05:21:32;;;;;;;75.10;30.60;;;;;;;4.32;69.09;101293.22;5089535;28;20056;-60
2022/01/26 05:23:58;;;;;;;68.97;29.33;;;;;;;4.33;69.50;101289.78;5090684;28;20055;-60
2022/01/26 05:26:25;;;;;;;75.93;29.70;;;;;;;4.33;69.25;101259.34;5091231;28;20056;-60
2022/01/26 05:28:52;;;;;;;72.47;29.88;;;;;;;4.36;69.35;101245.41;5089621;28;20051;-60
2022/01/26 05:31:20;;;;;;;74.63;31.30;;;;;;;4.35;69.15;101230.66;5090626;28;20105;-60
2022/01/26 05:33:47;;;;;;;83.32;35.00;;;;;;;4.35;68.97;101235.88;5090743;28;20193;-60
2022/01/26 05:36:13;;;;;;;82.72;34.60;;;;;;;4.31;68.85;101224.59;5090720;28;20052;-62
2022/01/26 05:38:40;;;;;;;80.63;33.70;;;;;;;4.26;68.59;101219.41;5090449;28;20404;-61
2022/01/26 05:41:09;;;;;;;78.22;34.50;;;;;;;4.20;68.58;101222.06;5090829;28;20055;-64
2022/01/26 05:43:36;;;;;;;80.72;32.08;;;;;;;4.14;68.80;101227.31;5089793;28;20056;-62
2022/01/26 05:46:12;;;;;;;80.85;32.92;;;;;;;4.10;69.06;101220.38;5090795;28;20048;-63
2022/01/26 05:48:44;;;;;;;82.38;34.17;;;;;;;4.07;69.07;101230.84;5090749;28;20052;-64
2022/01/26 05:51:12;;;;;;;88.30;35.90;;;;;;;4.05;68.89;101228.25;5090477;28;20048;-61
2022/01/26 05:53:40;;;;;;;80.13;33.88;;;;;;;4.03;69.29;101241.28;5090699;28;20048;-61
2022/01/26 05:56:07;;;;;;;85.22;32.72;;;;;;;4.02;69.13;101243.88;5091976;28;20048;-61
2022/01/26 05:58:34;;;;;;;86.05;33.30;;;;;;;4.02;69.38;101239.56;5092893;28;20120;-61
2022/01/26 06:01:03;;;;;;;85.80;33.22;;;;;;;4.01;69.45;101224.78;5094115;28;20516;-63
2022/01/26 06:03:29;;;;;;;91.18;33.33;;;;;;;4.03;69.49;101215.22;5092617;28;20511;-62
2022/01/26 06:05:57;;;;;;;87.75;35.33;;;;;;;4.05;69.72;101230.84;5094249;28;20055;-62
2022/01/26 06:08:24;;;;;;;95.45;37.10;;;;;;;4.07;69.46;101241.28;5094164;28;20047;-63
2022/01/26 06:10:52;;;;;;;89.07;33.85;;;;;;;4.08;69.43;101241.25;5092700;28;20503;-64
2022/01/26 06:13:18;;;;;;;83.63;34.13;;;;;;;4.11;69.64;101248.19;5092737;28;20101;-62
2022/01/26 06:15:47;;;;;;;85.72;34.40;;;;;;;4.14;69.61;101248.16;5093839;28;20097;-62
2022/01/26 06:18:13;;;;;;;84.82;33.63;;;;;;;4.18;69.42;101252.47;5092473;28;20491;-64
2022/01/26 06:20:40;;;;;;;97.00;36.90;;;;;;;4.20;69.50;101248.13;5093753;28;20117;-62
2022/01/26 06:23:07;;;;;;;91.53;37.55;;;;;;;4.24;69.69;101251.56;5093857;28;20093;-62
2022/01/26 06:25:34;;;;;;;87.60;36.05;;;;;;;4.25;69.14;101243.75;5093722;28;20059;-63
2022/01/26 06:28:06;;;;;;;92.32;36.20;;;;;;;4.26;69.15;101239.41;5093784;28;20397;-62
2022/01/26 06:30:32;;;;;;;93.30;37.25;;;;;;;4.27;68.90;101251.56;5093701;28;20077;-62
2022/01/26 06:32:59;;;;;;;104.53;42.63;;;;;;;4.25;68.36;101240.28;5093710;28;20056;-60
2022/01/26 06:35:27;;;;;;;109.57;42.40;;;;;;;4.18;67.69;101244.66;5093687;28;20048;-62
2022/01/26 06:37:54;;;;;;;94.72;38.00;;;;;;;4.13;68.07;101236.00;5092144;28;20450;-62
2022/01/26 06:40:21;;;;;;;105.90;41.85;;;;;;;4.07;68.40;101236.91;5093006;28;20097;-63
2022/01/26 06:42:54;;;;;;;95.32;38.50;;;;;;;4.04;68.48;101248.22;5093393;28;20048;-64
2022/01/26 06:45:27;;;;;;;101.47;40.10;;;;;;;4.01;68.94;101248.22;5091933;28;20044;-64
2022/01/26 06:50:40;;;;;;;96.25;35.63;;;;;;;4.03;68.71;101246.50;5092979;28;19945;-62
2022/01/26 06:53:07;;;;;;;96.35;38.83;;;;;;;4.02;68.96;101247.38;5093074;28;20048;-61
2022/01/26 06:55:35;;;;;;;99.45;38.25;;;;;;;4.01;69.26;101248.22;5092874;28;20048;-63
2022/01/26 06:58:02;;;;;;;101.22;39.75;;;;;;;4.00;68.86;101238.69;5092995;28;20056;-62
2022/01/26 07:00:29;;;;;;;106.85;37.83;;;;;;;4.00;69.24;101214.38;5091358;28;20044;-64
2022/01/26 07:02:55;;;;;;;100.20;39.63;;;;;;;3.99;68.83;101221.31;5093059;28;20048;-62
2022/01/26 07:05:23;;;;;;;98.53;36.55;;;;;;;3.99;68.93;101221.31;5092882;28;20048;-62
2022/01/26 07:07:49;;;;;;;104.75;39.75;;;;;;;3.98;68.69;101217.00;5091459;28;20488;-62
2022/01/26 07:10:16;;;;;;;110.55;41.08;;;;;;;3.98;68.82;101213.50;5092494;28;20093;-62
2022/01/26 07:12:43;;;;;;;103.15;39.03;;;;;;;3.98;68.61;101221.31;5093017;28;20106;-63
2022/01/26 07:23:07;;;;;;;109.32;40.05;;;;;;;3.82;68.66;101198.00;5092528;28;20109;-61
2022/01/26 07:25:34;;;;;;;106.72;36.78;;;;;;;3.79;69.15;101208.41;5091650;28;20047;-62
2022/01/26 07:28:04;;;;;;;104.45;39.47;;;;;;;3.77;68.80;101217.97;5091114;28;20052;-63
2022/01/26 07:30:32;;;;;;;102.45;40.30;;;;;;;3.75;68.86;101218.00;5090962;28;20534;-62
2022/01/26 07:32:58;;;;;;;97.45;37.03;;;;;;;3.73;68.83;101219.72;5091191;28;20381;-61
2022/01/26 07:35:25;;;;;;;98.18;38.50;;;;;;;3.73;69.21;101204.09;5092150;28;20120;-66
2022/01/26 07:37:54;;;;;;;113.20;42.80;;;;;;;3.70;68.82;101208.47;5092291;28;20557;-63
2022/01/26 07:40:20;;;;;;;119.00;41.53;;;;;;;3.68;68.85;101213.69;5091581;28;20558;-62
2022/01/26 07:42:47;;;;;;;103.32;38.70;;;;;;;3.65;68.69;101205.88;5091977;28;20113;-62
2022/01/26 07:45:13;;;;;;;112.55;41.08;;;;;;;3.64;69.35;101219.78;5090537;28;20048;-62
2022/01/26 07:47:40;;;;;;;110.72;41.67;;;;;;;3.62;68.82;101219.78;5090030;28;20121;-62
2022/01/26 07:50:11;;;;;;;106.97;40.28;;;;;;;3.60;69.00;101218.94;5091372;28;20063;-62
2022/01/26 07:52:39;;;;;;;110.57;40.78;;;;;;;3.59;69.00;101235.41;5092150;28;20043;-63
2022/01/26 07:55:09;;;;;;;123.43;43.60;;;;;;;3.57;69.19;101244.97;5090989;28;20052;-61
2022/01/26 07:57:36;;;;;;;122.32;42.65;;;;;;;3.58;69.18;101231.06;5091856;28;20056;-63
2022/01/26 08:00:06;;;;;;;118.82;43.95;;;;;;;3.56;69.04;101235.44;5090477;28;20079;-62
2022/01/26 08:02:32;;;;;;;117.47;43.83;;;;;;;3.58;68.91;101253.63;5090392;28;20491;-62
2022/01/26 08:04:59;;;;;;;121.65;44.90;;;;;;;3.56;68.89;101256.25;5091328;28;20480;-61
2022/01/26 08:07:27;;;;;;;119.82;43.60;;;;;;;3.56;69.15;101264.06;5091893;28;20044;-64
2022/01/26 08:09:53;;;;;;;108.35;40.15;;;;;;;3.56;69.32;101265.81;5091590;28;20603;-60
2022/01/26 08:12:24;;;;;;;108.05;42.10;;;;;;;3.57;69.30;101267.53;5091540;28;20447;-62
2022/01/26 08:15:11;;;;;;;105.18;39.92;;;;;;;3.59;69.53;101266.66;5091191;28;20496;-61
2022/01/26 08:17:39;;;;;;;108.70;39.70;;;;;;;3.59;69.24;101263.19;5091147;28;20052;-62
2022/01/26 08:20:07;;;;;;;111.57;41.80;;;;;;;3.59;69.35;101261.44;5091452;28;20044;-61
2022/01/26 08:22:34;;;;;;;102.50;39.95;;;;;;;3.60;69.26;101260.59;5090401;28;20056;-61
2022/01/26 08:25:01;;;;;;;99.80;38.58;;;;;;;3.62;69.62;101255.34;5091581;28;20055;-61
2022/01/26 08:27:33;;;;;;;101.72;37.97;;;;;;;3.63;69.92;101259.72;5091411;28;20044;-62
2022/01/26 08:30:07;;;;;;;96.80;38.10;;;;;;;3.64;69.78;101245.81;5091317;28;20381;-61
2022/01/26 08:32:34;;;;;;;97.13;36.35;;;;;;;3.67;69.34;101250.13;5091665;28;20052;-62
2022/01/26 08:35:00;;;;;;;98.30;37.13;;;;;;;3.69;69.61;101271.81;5091287;28;20055;-68
2022/01/26 08:37:27;;;;;;;106.13;39.97;;;;;;;3.68;69.31;101267.50;5091238;28;20059;-65
2022/01/26 08:39:54;;;;;;;96.97;34.95;;;;;;;3.67;69.23;101255.34;5091127;28;20055;-62
2022/01/26 08:42:21;;;;;;;87.72;33.33;;;;;;;3.68;69.37;101264.88;5091285;28;20451;-61
2022/01/26 08:44:47;;;;;;;88.03;34.42;;;;;;;3.68;69.42;101264.88;5091469;28;20121;-62
2022/01/26 08:47:14;;;;;;;90.90;34.55;;;;;;;3.69;69.52;101249.25;5091215;28;20055;-63
2022/01/26 08:49:42;;;;;;;88.45;33.85;;;;;;;3.71;69.46;101249.25;5091169;28;20449;-62
2022/01/26 08:52:09;;;;;;;95.45;35.95;;;;;;;3.72;69.32;101244.03;5091127;28;20101;-61
2022/01/26 08:54:35;;;;;;;91.30;36.03;;;;;;;3.70;69.38;101227.53;5091149;28;20462;-62
2022/01/26 08:57:02;;;;;;;94.63;34.10;;;;;;;3.70;69.73;101227.53;5091172;28;20044;-61
2022/01/26 08:59:28;;;;;;;91.03;35.63;;;;;;;3.71;69.81;101237.13;5090900;28;20044;-61
2022/01/26 09:01:55;;;;;;;87.15;34.42;;;;;;;3.71;69.58;101237.13;5091230;28;20484;-64
2022/01/26 09:04:22;;;;;;;87.55;34.40;;;;;;;3.72;69.77;101224.94;5091056;28;20055;-62
2022/01/26 09:06:55;;;;;;;90.22;36.70;;;;;;;3.72;69.58;101235.34;5091010;28;20052;-62
2022/01/26 09:09:31;;;;;;;100.50;37.08;;;;;;;3.70;69.39;101224.09;5091118;28;20051;-64
2022/01/26 09:12:05;;;;;;;95.07;34.80;;;;;;;3.72;69.92;101231.03;5089896;28;20496;-61
2022/01/26 09:14:32;;;;;;;92.53;36.45;;;;;;;3.71;69.61;101224.09;5089984;28;20121;-62
2022/01/26 09:16:59;;;;;;;104.38;38.10;;;;;;;3.72;69.85;101222.31;5091068;28;20063;-62
2022/01/26 09:21:56;;;;;;;98.65;38.63;;;;;;;3.72;69.99;101219.72;5090980;28;20451;-63
2022/01/26 09:24:25;;;;;;;103.07;39.47;;;;;;;3.72;69.89;101223.22;5089981;28;20052;-62
2022/01/26 09:26:52;;;;;;;94.22;37.05;;;;;;;3.74;70.09;101226.66;5089730;28;20121;-63
2022/01/26 09:29:18;;;;;;;104.07;38.85;;;;;;;3.74;70.07;101228.41;5090640;28;20058;-61
2022/01/26 09:31:47;;;;;;;106.40;39.35;;;;;;;3.76;70.03;101230.13;5094610;28;20048;-61
2022/01/26 09:34:19;;;;;;;111.63;42.53;;;;;;;3.78;70.04;101232.75;5093774;28;20059;-62
2022/01/26 09:36:46;;;;;;;108.97;43.22;;;;;;;3.80;70.20;101237.91;5093555;28;20062;-61
2022/01/26 09:39:14;;;;;;;111.15;41.78;;;;;;;3.80;69.96;101246.59;5094604;28;20044;-62
2022/01/26 09:41:41;;;;;;;112.60;41.70;;;;;;;3.82;70.04;101244.88;5093198;28;20047;-63
2022/01/26 09:44:13;;;;;;;111.10;43.20;;;;;;;3.84;70.52;101240.50;5094460;28;20051;-62
2022/01/26 09:46:40;;;;;;;108.93;43.47;;;;;;;3.86;70.12;101244.00;5094458;28;20083;-61
2022/01/26 09:49:07;;;;;;;118.85;44.05;;;;;;;3.88;70.10;101251.75;5094198;28;20083;-65
2022/01/26 09:51:43;;;;;;;116.00;44.00;;;;;;;3.91;70.37;101264.78;5093560;28;20047;-62
2022/01/26 09:54:16;;;;;;;116.65;45.05;;;;;;;3.91;69.97;101254.38;5094330;28;20048;-61
2022/01/26 09:56:46;;;;;;;;;;;;;;;3.94;69.23;101259.56;5094753;28;20051;-64
2022/01/26 09:59:15;;;;;;;103.53;38.70;;;;;;;3.99;70.27;101267.34;5094016;28;19920;-62
2022/01/26 10:01:47;;;;;;;118.47;45.03;;;;;;;4.00;70.22;101277.75;5092823;28;20051;-62
2022/01/26 10:04:37;;;;;;;122.55;46.42;;;;;;;3.99;69.67;101281.25;5094428;28;20136;-62
2022/01/26 10:07:28;;;;;;;120.43;45.22;;;;;;;4.04;70.09;101284.69;5094214;28;20384;-62
2022/01/26 10:15:28;;;;;;;137.27;51.72;;;;;;;4.11;70.12;101271.66;5094500;28;20105;-62
2022/01/26 10:18:04;;;;;;;126.18;48.67;;;;;;;4.10;69.84;101267.28;5092576;28;20043;-62
2022/01/26 10:20:38;;;;;;;123.53;48.78;;;;;;;4.10;69.73;101264.69;5092453;28;20048;-63
2022/01/26 10:23:06;;;;;;;127.78;49.58;;;;;;;4.12;70.32;101283.78;5093903;28;20051;-65
2022/01/26 10:25:33;;;;;;;136.68;53.13;;;;;;;4.13;70.26;101293.34;5093559;28;20101;-64
2022/01/26 10:28:04;;;;;;;130.82;51.22;;;;;;;4.13;70.41;101285.53;5093584;28;20507;-62
2022/01/26 10:30:32;;;;;;;131.88;52.05;;;;;;;4.13;70.34;101285.53;5093863;28;20052;-62
2022/01/26 10:33:07;;;;;;;141.02;51.50;;;;;;;4.13;70.25;101277.69;5092308;28;20058;-64
2022/01/26 10:35:34;;;;;;;143.15;54.08;;;;;;;4.14;70.55;101284.63;5093656;28;20048;-62
2022/01/26 10:38:01;;;;;;;142.20;54.65;;;;;;;4.14;70.52;101279.44;5092134;28;20085;-62
2022/01/26 10:40:28;;;;;;;144.48;55.20;;;;;;;4.15;70.61;101276.81;5092784;28;20577;-64
2022/01/26 10:43:11;;;;;;;137.48;51.50;;;;;;;4.13;70.44;101273.38;5093647;28;20048;-63
2022/01/26 10:46:04;;;;;;;138.07;53.45;;;;;;;4.16;70.55;101272.47;5093421;28;20105;-62
2022/01/26 10:53:53;;;;;;;146.23;55.08;;;;;;;4.22;70.73;101262.00;5093227;28;20048;-63
2022/01/26 10:56:20;;;;;;;139.32;52.55;;;;;;;4.24;70.75;101252.47;5076182;28;20201;-64
2022/01/26 10:58:46;;;;;;;147.40;56.33;;;;;;;4.26;70.79;101263.72;5093021;28;20110;-62
2022/01/26 11:01:13;;;;;;;140.05;55.90;;;;;;;4.27;70.91;101247.19;5092865;28;20058;-62
2022/01/26 11:03:40;;;;;;;142.02;53.97;;;;;;;4.28;70.81;101251.56;5092880;28;20052;-63
2022/01/26 11:06:08;;;;;;;142.93;56.20;;;;;;;4.30;71.30;101255.00;5093048;28;20048;-62
2022/01/26 11:08:40;;;;;;;145.05;56.90;;;;;;;4.30;70.58;101251.56;5091726;28;20516;-62
2022/01/26 11:11:18;;;;;;;140.75;55.17;;;;;;;4.30;71.17;101255.00;5091399;28;20052;-63
2022/01/26 11:13:45;;;;;;;153.88;56.63;;;;;;;4.34;71.11;101257.59;5091587;28;20040;-63
2022/01/26 11:16:14;;;;;;;148.60;56.05;;;;;;;4.36;71.05;101263.66;5092587;28;20101;-62
2022/01/26 11:18:47;;;;;;;142.30;54.90;;;;;;;4.37;71.38;101260.19;5091159;28;20484;-62
2022/01/26 11:21:30;;;;;;;149.65;55.75;;;;;;;4.40;70.92;101270.59;5092572;28;20105;-62
2022/01/26 11:24:10;;;;;;;138.90;54.60;;;;;;;4.43;71.04;101278.41;5091440;28;20052;-62
2022/01/26 11:26:38;;;;;;;140.40;51.80;;;;;;;4.50;71.31;101258.34;5091275;28;20070;-62
2022/01/26 11:29:21;;;;;;;154.25;56.53;;;;;;;4.49;71.20;101262.69;5092359;28;20052;-62
2022/01/26 11:31:59;;;;;;;;;;;;;;;4.56;70.72;101260.91;5093045;28;20404;-62
2022/01/26 11:34:27;;;;;;;131.48;46.38;;;;;;;4.63;71.35;101261.75;5092211;28;19991;-62
2022/01/26 11:36:58;;;;;;;133.90;49.50;;;;;;;4.63;71.29;101248.72;5091020;28;20056;-61
2022/01/26 11:42:33;;;;;;;146.40;53.55;;;;;;;4.67;71.88;101253.88;5092348;28;20501;-63
2022/01/26 11:45:13;;;;;;;148.63;54.72;;;;;;;4.67;70.82;101242.56;5092320;28;20044;-62
2022/01/26 11:47:57;;;;;;;134.15;52.70;;;;;;;4.67;71.19;101233.00;5091222;28;20108;-62
2022/01/26 11:50:25;;;;;;;142.18;54.17;;;;;;;4.69;71.45;101231.25;5092157;28;20097;-62
2022/01/26 11:53:05;;;;;;;140.02;52.92;;;;;;;4.65;71.36;101215.63;5090152;28;20044;-62
2022/01/26 11:55:49;;;;;;;136.20;53.70;;;;;;;4.66;71.31;101219.97;5092135;28;20084;-62
2022/01/26 11:58:41;;;;;;;138.15;52.65;;;;;;;4.65;71.41;101221.72;5092276;28;20052;-61
2022/01/26 12:03:47;;;;;;;132.93;51.67;;;;;;;4.71;71.48;101227.78;5091818;28;20056;-62
2022/01/26 12:06:24;;;;;;;136.50;51.42;;;;;;;4.72;71.96;101221.66;5090644;28;20109;-64
2022/01/26 12:08:55;;;;;;;135.65;50.00;;;;;;;4.73;72.24;101210.34;5092060;28;20588;-63
2022/01/26 12:11:23;;;;;;;127.97;50.67;;;;;;;4.77;72.11;101218.16;5091594;28;20052;-60
2022/01/26 12:13:58;;;;;;;127.47;49.20;;;;;;;4.80;72.21;101214.63;5091813;28;20048;-62
2022/01/26 12:16:40;;;;;;;140.85;53.03;;;;;;;4.83;72.18;101210.25;5090527;28;20051;-62
2022/01/26 12:19:35;;;;;;;122.50;49.58;;;;;;;4.89;71.73;101219.75;5091630;28;20043;-65
2022/01/26 12:33:57;;;;;;;119.28;46.42;;;;;;;4.94;71.70;101204.91;5091542;28;20133;-62
2022/01/26 12:36:50;;;;;;;122.20;46.78;;;;;;;4.96;71.54;101191.88;5091315;28;20101;-63
2022/01/26 12:41:09;;;;;;;113.47;43.25;;;;;;;5.02;71.71;101190.94;5091118;28;20048;-61
2022/01/26 12:42:12;;;;;;;121.10;45.20;;;;;;;5.02;71.71;101186.59;5091389;28;20059;-61
2022/01/26 12:44:39;;;;;;;123.82;46.88;;;;;;;5.05;71.81;101181.31;5091331;28;20048;-62
2022/01/26 12:47:06;;;;;;;118.15;46.60;;;;;;;5.06;71.82;101188.28;5091261;28;20044;-62
2022/01/26 12:49:34;;;;;;;113.53;44.65;;;;;;;5.06;71.71;101183.06;5090957;28;20055;-62
2022/01/26 12:52:01;;;;;;;122.88;45.72;;;;;;;5.07;71.89;101179.56;5089821;28;20063;-62
2022/01/26 12:54:27;;;;;;;119.43;46.80;;;;;;;5.09;72.05;101183.00;5089715;28;20089;-62
2022/01/26 12:57:13;;;;;;;114.75;44.92;;;;;;;5.07;71.56;101174.34;5091089;28;20056;-63
2022/01/26 12:59:40;;;;;;;111.05;43.50;;;;;;;5.14;72.04;101163.84;5090850;28;20052;-61
2022/01/26 13:02:07;;;;;;;112.18;43.25;;;;;;;5.14;71.75;101163.84;5090929;28;20044;-64
2022/01/26 13:04:34;;;;;;;107.88;41.92;;;;;;;5.17;71.90;101169.03;5092932;28;20056;-62
2022/01/26 13:07:00;;;;;;;112.88;43.38;;;;;;;5.18;71.80;101162.91;5095386;28;20051;-64
2022/01/26 13:09:38;;;;;;;101.57;41.17;;;;;;;5.17;71.48;101164.69;5095014;28;20420;-61
2022/01/26 13:12:05;;;;;;;117.05;43.75;;;;;;;5.22;71.81;101156.78;5093944;28;20500;-62
2022/01/26 13:17:36;;;;;;;114.45;41.83;;;;;;;5.20;71.16;101172.44;5095044;28;20067;-62
2022/01/26 13:39:52;;;;;;;108.55;41.50;;;;;;;5.26;71.43;101119.31;5094450;28;20054;-62
2022/01/26 13:42:53;;;;;;;99.95;40.78;;;;;;;5.26;71.43;101118.44;5094281;28;20052;-62
2022/01/26 13:50:36;;;;;;;112.93;41.92;;;;;;;5.26;71.69;101132.34;5094263;28;20048;-62
2022/01/26 13:53:10;;;;;;;112.13;41.13;;;;;;;5.27;71.52;101123.63;5093334;28;20052;-62
2022/01/26 14:00:54;;;;;;;110.03;44.00;;;;;;;5.26;71.22;101121.91;5093516;28;20052;-63
2022/01/26 14:03:24;;;;;;;115.60;43.55;;;;;;;5.27;71.68;101128.88;5093926;28;20039;-63
2022/01/26 14:05:51;;;;;;;107.25;43.78;;;;;;;5.25;71.54;101127.16;5094235;28;20105;-62
2022/01/26 14:08:18;;;;;;;113.68;43.30;;;;;;;5.24;71.59;101123.69;5093551;28;20494;-61
2022/01/26 14:10:46;;;;;;;102.05;41.10;;;;;;;5.23;71.65;101127.16;5093627;28;20107;-68
2022/01/26 14:13:18;;;;;;;89.05;38.33;;;;;;;5.24;71.94;101123.69;5093850;28;20055;-64
2022/01/26 14:15:48;;;;;;;91.65;38.60;;;;;;;5.25;71.97;101125.41;5093425;28;20105;-68